Overton, Nevada Weather observations

Data are for observation ending at time listed.
 Day   Time    Ave.   Ave.  Ave.  Vector   Max.   Stn.    Total    Solar   Ave.  
  of    of     Air    Rel.  Wind   Wind    Wind   Baro.  Precip.   Rad.    Soil  
Year   Day     Temp.  Hum.  Speed  Dir.    Gust   Pres.                    Temp. 
2026   (PST)    F      %     mph   deg.    mph     mb.     in.     W/m2     F   
------------------------------------------------------------------------------
 127   13:10   92.4     8    3.1    60      7.5   967.1    0.00     917    100.9
 127   13:20   93.4     8    4.5    55      8.3   966.9    0.00     900    100.4
 127   13:30   92.9     8    3.5    43      7.8   966.8    0.00     883    99.5
 127   13:40   92.9     8    3.9    16      6.9   966.6    0.00     863    98.7
 127   13:50   93.1     8    1.8   345      4.8   966.4    0.00     842    98.6
 127   14:00   93.6     8    3.5    50      7.7   966.2    0.00     819    98.5
 127   14:10   94.4     7    3.8     2      8.1   966.1    0.00     795    98.0
 127   14:20   93.5     8    4.0    92      7.5   965.9    0.00     772    98.5
 127   14:30   94.5     7    3.2   354      6.9   965.7    0.00     742    98.0
 127   14:40   95.5     7    3.6    13      7.7   965.6    0.00     714    97.7
 127   14:50   94.9     7    3.5   318      6.3   965.5    0.00     685    97.5
 127   15:00   94.7     7    3.6   256      9.3   965.4    0.00     298    97.5
 127   15:10   94.2     7    4.1   203      9.0   965.2    0.00     198    98.0
 127   15:20   94.4     7    4.4    50      8.7   965.1    0.00     378    97.2
 127   15:30   95.2     7    2.1    41      5.2   965.0    0.00     562    96.8
 127   15:40   95.9     7    2.5   129      7.2   964.9    0.00     362    96.9
 127   15:50   95.0     7    3.4   136      7.0   964.9    0.00     487    96.8
 127   16:00   95.2     7    2.6    86      5.0   964.8    0.00     451    96.4
 127   16:10   95.0     7    2.1   134      5.0   964.7    0.00     263    96.1
 127   16:20   95.2     7    1.4   124      4.0   964.6    0.00     356    95.8
 127   16:30   95.6     7    1.9   115      5.3   964.5    0.00     356    95.5
 127   16:40   95.2     7    2.9   136      8.2   964.4    0.00     322    95.4
 127   16:50   94.9     7    2.7   140      6.6   964.3    0.00     167    95.0
 127   17:00   94.9     7    3.8   149      7.0   964.1    0.00     248    95.0
 127   17:10   95.1     7    2.6   125      6.5   964.1    0.00     217    94.6
 127   17:20   95.3     7    2.3   122      5.6   963.9    0.00     185    94.2
 127   17:30   95.2     8    3.0   129      6.9   963.8    0.00     155    94.0
 127   17:40   94.6     8    3.2   125      6.5   963.7    0.00     126    93.6
 127   17:50   93.6     8    5.0   162      9.2   963.6    0.00      62    93.4
 127   18:00   92.6     8    4.7   163      9.4   963.5    0.00      33    92.9
 127   18:10   92.0     8    4.9   160      9.6   963.2    0.00      26    92.3
 127   18:20   91.5     8    4.0   158      7.3   963.2    0.00      18    91.7
 127   18:30   90.8     8    3.7   162      7.2   963.0    0.00      10    91.0
 127   18:40   90.0     8    3.0   170      5.3   962.9    0.00       5    90.4
 127   18:50   89.7     8    3.7   169      7.7   962.8    0.00       1    90.1
 127   19:00   88.8     9    2.5   154      6.0   962.8    0.00       0    89.4
 127   19:10   85.2    12    2.1    97      2.9   962.8    0.00       0    88.1
 127   19:20   83.2    14    2.1    97      2.7   962.8    0.00       0    87.4
 127   19:30   82.5    13    2.0    88      3.1   962.8    0.00       0    86.7
 127   19:40   82.2    13    1.9    90      3.1   962.8    0.00       0    86.1
 127   19:50   82.4    12    1.6   105      3.6   962.7    0.00       0    85.8
 127   20:00   80.9    14    0.1   150      1.1   962.6    0.00       0    84.0
 127   20:10   78.6    15    0.0   280      0.7   962.5    0.00       0    83.5
 127   20:20   77.8    16    0.1   234      1.0   962.5    0.00       0    82.7
 127   20:30   76.1    17    0.1   336      1.1   962.4    0.00       0    82.1
 127   20:40   75.9    17    0.2   336      1.5   962.4    0.00       0    82.0
 127   20:50   74.9    18    0.0   322      0.5   962.3    0.00       0    81.1
 127   21:00   72.9    20    0.8   314      2.0   962.3    0.00       0    80.1
 127   21:10   72.0    20    0.7   319      1.6   962.2    0.00       0    79.8
 127   21:20   71.6    20    0.4   324      2.0   962.2    0.00       0    79.4
 127   21:30   72.2    19    1.7   299      2.6   962.1    0.00       0    79.5
 127   21:40   71.3    21    1.4   315      2.6   962.0    0.00       0    78.4
 127   21:50   69.8    23    2.0   334      2.9   962.0    0.00       0    77.9
 127   22:00   69.5    23    2.7   330      5.2   961.9    0.00       0    77.7
 127   22:10   69.2    23    2.5   331      3.9   961.9    0.00       0    77.1
 127   22:20   68.7    23    3.0   331      4.6   961.9    0.00       0    76.7
 127   22:30   69.5    21    3.2   323      4.9   961.9    0.00       0    76.8
 127   22:40   69.5    21    1.3   299      2.9   961.9    0.00       0    76.3
 127   22:50   69.2    21    1.7   294      3.2   961.9    0.00       0    76.3
 127   23:00   70.8    19    1.0   278      3.1   961.9    0.00       0    76.6
 127   23:10   69.9    20    1.6   306      3.2   962.0    0.00       0    75.6
 127   23:20   67.6    23    2.6   316      3.8   961.9    0.00       0    75.2
 127   23:30   68.0    21    1.9   308      3.7   961.9    0.00       0    74.9
 127   23:40   66.8    23    2.2   329      3.4   961.9    0.00       0    74.2
 127   23:50   66.0    24    0.9   316      2.3   961.8    0.00       0    73.9
 128    0:00   65.6    25    1.3   310      2.9   961.7    0.00       0    73.5
 128    0:10   65.7    24    2.3   315      3.4   961.7    0.00       0    73.5
 128    0:20   64.6    25    2.3   328      3.6   961.7    0.00       0    72.7
 128    0:30   63.5    26    2.0   311      3.9   961.7    0.00       0    72.3
 128    0:40   65.6    21    1.4   277      3.0   961.6    0.00       0    73.2
 128    0:50   66.4    20    1.7   300      3.1   961.6    0.00       0    72.6
 128    1:00   64.3    24    1.7   314      3.0   961.5    0.00       0    71.9
 128    1:10   64.9    21    1.8   286      4.5   961.5    0.00       0    72.3
 128    1:20   66.5    19    1.9   260      3.8   961.6    0.00       0    72.4
 128    1:30   64.1    24    1.7   330      3.0   961.6    0.00       0    71.0
 128    1:40   62.6    25    2.0   315      4.2   961.7    0.00       0    71.3
 128    1:50   63.8    22    1.8   306      3.7   961.7    0.00       0    71.2
 128    2:00   63.1    24    1.9   309      3.7   961.7    0.00       0    70.5
 128    2:10   62.9    23    2.1   298      3.4   961.8    0.00       0    70.7
 128    2:20   64.9    20    1.2   293      2.6   961.9    0.00       0    70.9
 128    2:30   63.3    24    3.2   332      4.0   962.0    0.00       0    69.9
 128    2:40   62.2    24    2.6   315      3.7   962.0    0.00       0    70.0
 128    2:50   62.7    24    1.2   326      3.0   962.0    0.00       0    69.6
 128    3:00   62.1    25    1.4   299      2.4   962.0    0.00       0    69.0
 128    3:10   61.7    25    0.4   233      1.4   962.0    0.00       0    69.4
 128    3:20   62.7    24    0.4   256      1.3   962.1    0.00       0    68.9
 128    3:30   61.1    28    0.0     0      0.0   962.1    0.00       0    68.4
 128    3:40   60.2    31    0.6   340      1.8   962.0    0.00       0    67.9
 128    3:50   59.5    31    1.2   340      1.8   962.1    0.00       0    67.9
 128    4:00   60.7    27    0.4   271      2.3   962.1    0.00       0    68.3
 128    4:10   61.2    26    0.2   232      1.2   962.1    0.00       0    68.2
 128    4:20   59.5    30    0.5   326      1.8   962.2    0.00       0    66.7
 128    4:30   57.7    33    2.0   339      3.2   962.2    0.00       1    66.5
 128    4:40   57.8    32    1.3   353      2.3   962.3    0.00       4    66.6
 128    4:50   58.5    30    0.6   307      1.8   962.4    0.00       9    66.8
 128    5:00   59.8    28    0.9   298      2.0   962.5    0.00      26    68.0
 128    5:10   58.5    32    2.1   332      3.1   962.7    0.00      59    69.0
 128    5:20   58.9    32    2.2   331      2.9   962.8    0.00      86    71.1
 128    5:30   60.6    30    1.9   341      3.4   963.0    0.00     114    72.9
 128    5:40   62.2    30    1.5   349      2.6   963.3    0.00     144    74.9
 128    5:50   64.5    26    1.1   318      2.5   963.6    0.00     176    77.1
 128    6:00   66.3    24    0.6   298      3.1   963.8    0.00     209    80.1
 128    6:10   68.8    20    1.7   302      3.4   964.1    0.00     244    80.9
 128    6:20   71.0    18    1.4   302      3.2   964.5    0.00     279    81.8
 128    6:30   72.2    16    1.9   300      3.9   964.9    0.00     316    82.2
 128    6:40   73.7    16    2.2   316      4.2   965.1    0.00     353    84.5
 128    6:50   74.5    15    2.8   315      5.3   965.3    0.00     390    85.6
 128    7:00   75.5    15    4.1   315      5.8   965.4    0.00     428    87.3
 128    7:10   76.6    15    4.2   328      5.5   965.5    0.00     463    88.6
 128    7:20   77.8    14    2.5   334      4.8   965.5    0.00     497    91.0
 128    7:30   79.2    12    2.0   334      4.1   965.7    0.00     530    93.7
 128    7:40   80.2    11    1.5   319      4.4   965.9    0.00     564    96.0
 128    7:50   80.6    11    1.5   311      4.2   966.1    0.00     597    98.1
 128    8:00   82.5    11    0.8    13      2.3   966.2    0.00     628    100.9
 128    8:10   82.6    11    1.3   359      3.2   966.3    0.00     657    101.2
 128    8:20   83.4    11    1.2    32      3.8   966.4    0.00     686    102.6
 128    8:30   84.7    11    0.6    18      3.4   966.5    0.00     716    104.6
 128    8:40   84.9    11    1.5   351      4.2   966.6    0.00     747    105.6
 128    8:50   85.1    11    1.0   123      2.6   966.6    0.00     773    107.4
 128    9:00   85.5    11    0.7   137      2.2   966.6    0.00     798    109.9
 128    9:10   86.8    10    1.1   320      2.8   966.6    0.00     823    108.8
 128    9:20   87.6    10    1.0    60      2.5   966.6    0.00     848    109.9
 128    9:30   88.4    10    0.9   114      2.6   966.7    0.00     867    112.1
 128    9:40   89.0    10    0.9   349      3.0   966.7    0.00     888    111.5
 128    9:50   90.0     9    1.3   162      4.8   966.7    0.00     907    115.1
 128   10:00   90.9     9    1.8   104      4.4   966.6    0.00     924    114.8
 128   10:10   91.2     8    2.1   170      5.4   966.6    0.00     940    114.6
 128   10:20   92.1     8    1.9   202      5.0   966.5    0.00     954    114.6
 128   10:30   92.7     8    1.6   196      4.2   966.4    0.00     965    115.1
 128   10:40   93.0     8    2.6   110      5.6   966.3    0.00     974    113.6
 128   10:50   93.6     8    2.5    66      6.0   966.2    0.00     983    111.8
 128   11:00   94.7     8    3.0   121      5.5   966.1    0.00     991    113.1
 128   11:10   94.7     8    2.4   136      5.3   965.9    0.00     995    114.5
 128   11:20   95.3     8    2.1   137      4.8   965.7    0.00     997    114.7
 128   11:30   95.5     8    2.7   103      6.4   965.6    0.00     997    114.2
 128   11:40   96.5     7    2.2   110      5.5   965.5    0.00     996    114.0
 128   11:50   96.9     7    3.1   100      5.5   965.4    0.00     994    114.0
 128   12:00   97.7     7    3.5   134      7.6   965.3    0.00     990    114.6
 128   12:10   97.8     7    2.5   152      6.9   965.2    0.00     985    116.0
 128   12:20   99.3     7    3.2    74      6.5   965.1    0.00     977    113.1
 128   12:30   98.7     7    3.5    84      7.6   965.0    0.00     967    110.8
 128   12:40   99.4     6    2.4    78      7.5   964.9    0.00     956    109.9
 128   12:50   99.0     7    4.2    92      7.9   964.7    0.00     941    108.2
 128   13:00   99.9     7    3.3    56      6.6   964.6    0.00     927    107.1

Return to Overton, Nevada graphs page.


Western Regional Climate Center,wrcc@dri.edu